Time;durP1;ratioP1;P1;durP2;ratioP2;P2;SDS_P1;SDS_P2;PMS_P1;PMS_P2;Temp;Humidity;BMP_temperature;BMP_pressure;BME280_temperature;BME280_humidity;BME280_pressure;Samples;Min_cycle;Max_cycle;Signal;HPM_P1;HPM_P2
2022/03/18 00:00:20;;;;;;;30.40;5.43;;;0.70;99.90;;;;;;5075086;28;20024;-72
2022/03/18 00:02:52;;;;;;;57.65;7.63;;;0.60;99.90;;;;;;5075181;28;20028;-72
2022/03/18 00:05:18;;;;;;;34.45;4.85;;;0.60;99.90;;;;;;5074967;28;20029;-72
2022/03/18 00:07:47;;;;;;;50.92;6.50;;;0.50;99.90;;;;;;5075188;28;20020;-72
2022/03/18 00:10:14;;;;;;;45.97;6.22;;;0.50;99.90;;;;;;5074709;28;20111;-72
2022/03/18 00:12:41;;;;;;;44.05;7.03;;;0.50;99.90;;;;;;5074633;28;20020;-72
2022/03/18 00:15:11;;;;;;;37.08;6.93;;;0.60;99.90;;;;;;5074597;28;20112;-72
2022/03/18 00:17:37;;;;;;;47.63;5.70;;;0.60;99.90;;;;;;5074823;28;20056;-72
2022/03/18 00:20:04;;;;;;;31.80;6.40;;;0.60;99.90;;;;;;5074991;28;20028;-72
2022/03/18 00:22:30;;;;;;;43.90;5.40;;;0.60;99.90;;;;;;5074406;28;20112;-72
2022/03/18 00:24:56;;;;;;;58.58;6.30;;;0.80;99.90;;;;;;5074128;28;20052;-72
2022/03/18 00:27:23;;;;;;;39.60;6.88;;;0.80;99.90;;;;;;5074489;28;20024;-72
2022/03/18 00:29:49;;;;;;;46.28;5.95;;;0.80;99.90;;;;;;5074449;28;20016;-72
2022/03/18 00:32:14;;;;;;;49.33;6.90;;;0.80;99.90;;;;;;5074632;28;20031;-72
2022/03/18 00:34:40;;;;;;;40.33;6.47;;;0.80;99.90;;;;;;5074594;28;20048;-72
2022/03/18 00:37:06;;;;;;;45.17;6.22;;;0.80;99.90;;;;;;5074307;28;20381;-72
2022/03/18 00:39:32;;;;;;;52.58;6.70;;;0.80;99.90;;;;;;5074483;28;20044;-72
2022/03/18 00:41:58;;;;;;;39.15;6.55;;;0.90;99.90;;;;;;5074226;28;20419;-72
2022/03/18 00:44:25;;;;;;;46.30;6.20;;;1.00;99.90;;;;;;5074300;28;20469;-72
2022/03/18 00:46:52;;;;;;;52.42;6.30;;;0.90;99.90;;;;;;5074128;28;20032;-72
2022/03/18 00:52:05;;;;;;;38.13;6.18;;;0.90;99.90;;;;;;5074275;28;20488;-72
2022/03/18 00:54:43;;;;;;;43.58;6.25;;;0.80;99.90;;;;;;5074303;28;20027;-72
2022/03/18 00:57:09;;;;;;;46.72;6.45;;;0.70;99.90;;;;;;5074655;28;20020;-72
2022/03/18 00:59:35;;;;;;;51.28;6.53;;;0.80;99.90;;;;;;5073447;28;20421;-72
2022/03/18 01:02:02;;;;;;;49.83;7.55;;;0.80;99.90;;;;;;5073950;28;20036;-72
2022/03/18 01:04:31;;;;;;;45.67;5.70;;;0.80;99.90;;;;;;5074184;28;20044;-72
2022/03/18 01:06:57;;;;;;;52.45;6.50;;;0.90;99.90;;;;;;5073967;28;20025;-72
2022/03/18 01:09:24;;;;;;;37.45;5.75;;;0.90;99.90;;;;;;5073909;28;20107;-72
2022/03/18 01:11:51;;;;;;;45.05;6.85;;;0.90;99.90;;;;;;5073917;28;20088;-72
2022/03/18 01:14:18;;;;;;;40.00;6.50;;;1.00;99.90;;;;;;5073850;28;20032;-72
2022/03/18 01:16:44;;;;;;;43.08;5.97;;;1.00;99.90;;;;;;5073733;28;20108;-72
2022/03/18 01:19:09;;;;;;;28.02;4.93;;;1.00;99.90;;;;;;5073986;28;20060;-72
2022/03/18 01:21:36;;;;;;;62.25;7.30;;;1.10;99.90;;;;;;5073851;28;20021;-71
2022/03/18 01:24:02;;;;;;;49.90;7.50;;;1.20;99.90;;;;;;5073749;28;20052;-72
2022/03/18 01:26:29;;;;;;;45.22;6.70;;;1.30;99.90;;;;;;5072187;28;20028;-72
2022/03/18 01:28:56;;;;;;;33.03;5.65;;;1.40;99.90;;;;;;5073806;28;20029;-72
2022/03/18 01:31:22;;;;;;;70.68;7.65;;;1.50;99.90;;;;;;5073643;28;20472;-72
2022/03/18 01:33:48;;;;;;;49.15;7.22;;;1.60;99.90;;;;;;5074050;28;20025;-72
2022/03/18 01:36:13;;;;;;;47.90;6.88;;;1.80;99.90;;;;;;5073657;28;20031;-72
2022/03/18 01:38:39;;;;;;;59.28;9.10;;;2.00;99.90;;;;;;5073695;28;20050;-72
2022/03/18 01:41:05;;;;;;;54.22;7.88;;;2.20;99.90;;;;;;5073680;28;20064;-72
2022/03/18 01:43:37;;;;;;;42.50;7.78;;;2.20;99.90;;;;;;5073966;28;20032;-72
2022/03/18 01:46:02;;;;;;;57.78;7.90;;;2.20;99.90;;;;;;5073772;28;20554;-72
2022/03/18 01:48:28;;;;;;;62.10;8.13;;;2.30;99.90;;;;;;5073904;28;20029;-72
2022/03/18 01:50:53;;;;;;;81.30;8.63;;;2.30;99.90;;;;;;5073515;28;20025;-72
2022/03/18 01:53:19;;;;;;;71.60;8.93;;;2.30;99.90;;;;;;5073758;28;20070;-72
2022/03/18 01:55:45;;;;;;;78.43;8.95;;;2.40;99.90;;;;;;5073489;28;20078;-72
2022/03/18 01:58:10;;;;;;;57.25;8.23;;;2.40;99.90;;;;;;5073463;28;20094;-72
2022/03/18 02:00:36;;;;;;;76.20;10.75;;;2.40;99.90;;;;;;5073443;28;20029;-72
2022/03/18 02:03:01;;;;;;;74.93;11.65;;;2.40;99.90;;;;;;5073472;28;20477;-72
2022/03/18 02:05:27;;;;;;;70.45;10.27;;;2.50;99.90;;;;;;5073616;28;20028;-72
2022/03/18 02:07:53;;;;;;;105.63;11.27;;;2.50;99.90;;;;;;5073622;28;20055;-72
2022/03/18 02:10:18;;;;;;;97.90;12.60;;;2.50;99.90;;;;;;5074922;28;20028;-72
2022/03/18 02:12:44;;;;;;;89.43;12.48;;;2.70;99.90;;;;;;5076921;28;20036;-72
2022/03/18 02:15:10;;;;;;;83.45;13.52;;;2.90;99.90;;;;;;5076836;28;20032;-72
2022/03/18 02:17:37;;;;;;;92.72;14.55;;;2.80;99.90;;;;;;5077370;28;20373;-72
2022/03/18 02:20:04;;;;;;;88.25;14.18;;;2.90;99.90;;;;;;5077072;28;20388;-72
2022/03/18 02:22:38;;;;;;;73.22;14.45;;;2.80;99.90;;;;;;5076752;28;20028;-72
2022/03/18 02:25:04;;;;;;;72.97;14.52;;;2.80;99.90;;;;;;5076532;28;20111;-72
2022/03/18 02:27:29;;;;;;;102.50;16.98;;;2.90;99.90;;;;;;5076725;28;20063;-72
2022/03/18 02:29:55;;;;;;;72.50;13.77;;;2.90;99.90;;;;;;5076678;28;20052;-72
2022/03/18 02:32:22;;;;;;;80.43;14.45;;;2.80;99.90;;;;;;5076735;28;20540;-72
2022/03/18 02:34:47;;;;;;;83.97;14.77;;;2.80;99.90;;;;;;5076542;28;20082;-72
2022/03/18 02:37:13;;;;;;;64.53;15.10;;;2.70;99.90;;;;;;5076417;28;20388;-72
2022/03/18 02:39:38;;;;;;;66.15;13.05;;;2.60;99.90;;;;;;5076829;28;20025;-72
2022/03/18 02:42:04;;;;;;;89.05;14.35;;;2.40;99.90;;;;;;5076769;28;20020;-72
2022/03/18 02:44:31;;;;;;;69.20;12.68;;;2.40;99.90;;;;;;5076394;28;20131;-72
2022/03/18 02:46:58;;;;;;;74.72;14.70;;;2.40;99.90;;;;;;5075371;28;20399;-72
2022/03/18 02:49:25;;;;;;;96.80;16.88;;;2.40;99.90;;;;;;5075078;28;20020;-72
2022/03/18 02:51:51;;;;;;;88.10;15.70;;;2.50;99.90;;;;;;5076271;28;20028;-72
2022/03/18 02:54:17;;;;;;;91.40;16.38;;;2.50;99.90;;;;;;5076204;28;20017;-72
2022/03/18 02:56:42;;;;;;;89.72;16.23;;;2.50;99.90;;;;;;5076432;28;20032;-72
2022/03/18 02:59:08;;;;;;;97.35;16.35;;;2.50;99.90;;;;;;5076170;28;20480;-72
2022/03/18 03:01:34;;;;;;;115.32;18.33;;;2.40;99.90;;;;;;5076536;28;20472;-72
2022/03/18 03:04:00;;;;;;;95.22;15.98;;;2.50;99.90;;;;;;5076711;28;20021;-72
2022/03/18 03:09:11;;;;;;;102.53;21.88;;;2.70;99.90;;;;;;5076599;28;20035;-72
2022/03/18 03:11:36;;;;;;;119.03;21.42;;;3.00;99.90;;;;;;5076014;28;20104;-72
2022/03/18 03:14:02;;;;;;;93.65;20.70;;;3.00;99.90;;;;;;5075752;28;20048;-72
2022/03/18 03:16:28;;;;;;;90.90;20.65;;;2.90;99.90;;;;;;5075755;28;20023;-72
2022/03/18 03:18:54;;;;;;;96.75;20.40;;;2.80;99.90;;;;;;5076376;28;20029;-72
2022/03/18 03:21:20;;;;;;;122.20;20.45;;;2.80;99.90;;;;;;5075035;28;20035;-72
2022/03/18 03:23:45;;;;;;;112.68;21.10;;;2.70;99.90;;;;;;5075945;28;20024;-72
2022/03/18 03:26:12;;;;;;;155.07;25.88;;;2.70;99.90;;;;;;5096457;23;20059;-73
2022/03/18 03:28:38;;;;;;;133.15;25.02;;;3.00;99.90;;;;;;5074981;28;20090;-71
2022/03/18 03:31:04;;;;;;;126.82;22.95;;;3.00;99.90;;;;;;5075235;28;20418;-72
2022/03/18 03:33:31;;;;;;;107.07;22.30;;;2.90;99.90;;;;;;5074938;28;20051;-72
2022/03/18 03:35:56;;;;;;;113.53;24.10;;;2.80;99.90;;;;;;5075069;28;20021;-71
2022/03/18 03:38:23;;;;;;;118.45;22.45;;;2.80;99.90;;;;;;5074840;28;20029;-71
2022/03/18 03:40:49;;;;;;;107.60;22.35;;;2.70;99.90;;;;;;5074769;28;20024;-71
2022/03/18 03:43:15;;;;;;;125.25;24.52;;;2.80;99.90;;;;;;5074941;28;20025;-71
2022/03/18 03:45:41;;;;;;;125.25;23.58;;;2.90;99.90;;;;;;5074611;28;20043;-72
2022/03/18 03:48:07;;;;;;;119.40;23.63;;;2.90;99.90;;;;;;5074460;28;20137;-72
2022/03/18 03:50:33;;;;;;;114.00;27.50;;;2.90;99.90;;;;;;5074594;28;20016;-72
2022/03/18 03:52:59;;;;;;;131.43;26.88;;;2.90;99.90;;;;;;5074433;28;20020;-71
2022/03/18 03:55:25;;;;;;;82.80;22.40;;;2.90;99.90;;;;;;5074491;28;20036;-71
2022/03/18 03:57:50;;;;;;;124.00;25.98;;;3.00;99.90;;;;;;5074586;28;20028;-71
2022/03/18 04:00:16;;;;;;;138.45;30.08;;;3.00;99.90;;;;;;5074384;28;20059;-71
2022/03/18 04:02:45;;;;;;;137.15;27.73;;;3.10;99.90;;;;;;5074347;28;20104;-72
2022/03/18 04:05:12;;;;;;;120.90;28.58;;;3.00;99.90;;;;;;5074136;28;20418;-71
2022/03/18 04:07:40;;;;;;;134.00;31.05;;;3.00;99.90;;;;;;5074448;28;20036;-71
2022/03/18 04:10:07;;;;;;;114.43;29.75;;;3.00;99.90;;;;;;5074204;28;20476;-71
2022/03/18 04:12:33;;;;;;;111.60;30.60;;;3.10;99.90;;;;;;5074417;28;20020;-71
2022/03/18 04:15:03;;;;;;;118.63;32.08;;;3.10;99.90;;;;;;5074215;28;20028;-71
2022/03/18 04:17:46;;;;;;;89.90;31.50;;;3.10;99.90;;;;;;5073885;28;20055;-72
2022/03/18 04:20:14;;;;;;;114.53;32.33;;;3.20;99.90;;;;;;5072861;28;20029;-72
2022/03/18 04:22:40;;;;;;;124.57;33.63;;;3.20;99.90;;;;;;5073882;28;20071;-72
2022/03/18 04:25:07;;;;;;;121.30;34.53;;;3.20;99.90;;;;;;5074552;28;20052;-71
2022/03/18 04:27:34;;;;;;;104.40;32.97;;;3.30;99.90;;;;;;5074025;28;20547;-72
2022/03/18 04:30:03;;;;;;;135.93;38.20;;;3.30;99.90;;;;;;5073787;28;20035;-70
2022/03/18 04:32:29;;;;;;;145.65;35.45;;;3.40;99.90;;;;;;5073805;28;20020;-70
2022/03/18 04:34:55;;;;;;;145.68;37.58;;;3.40;99.90;;;;;;5073732;28;20032;-70
2022/03/18 04:37:20;;;;;;;111.88;36.10;;;3.40;99.90;;;;;;5073561;28;20452;-70
2022/03/18 04:39:46;;;;;;;156.25;37.88;;;3.30;99.90;;;;;;5073844;28;20020;-70
2022/03/18 04:42:12;;;;;;;159.02;34.28;;;3.30;99.90;;;;;;5073583;28;20030;-70
2022/03/18 04:44:38;;;;;;;124.90;34.65;;;3.20;99.90;;;;;;5073440;28;20063;-70
2022/03/18 04:47:04;;;;;;;116.47;35.30;;;3.10;99.90;;;;;;5073463;28;20104;-70
2022/03/18 04:49:30;;;;;;;99.47;32.97;;;3.00;99.90;;;;;;5073470;28;20021;-70
2022/03/18 04:51:55;;;;;;;115.30;34.30;;;3.00;99.90;;;;;;5073453;28;20021;-70
2022/03/18 04:54:21;;;;;;;110.07;33.65;;;3.00;99.90;;;;;;5073423;28;20099;-70
2022/03/18 04:59:30;;;;;;;109.57;30.88;;;2.70;99.90;;;;;;5073382;28;20028;-70
2022/03/18 05:01:56;;;;;;;103.38;30.63;;;2.60;99.90;;;;;;5073614;28;20032;-70
2022/03/18 05:04:21;;;;;;;104.95;29.58;;;2.50;99.90;;;;;;5073322;28;20021;-70
2022/03/18 05:06:47;;;;;;;91.40;29.15;;;2.50;99.90;;;;;;5073302;28;20028;-70
2022/03/18 05:09:13;;;;;;;104.30;27.65;;;2.40;99.90;;;;;;5073295;28;20383;-70
2022/03/18 05:11:38;;;;;;;81.45;25.65;;;2.40;99.90;;;;;;5073785;28;20020;-70
2022/03/18 05:14:04;;;;;;;85.10;28.38;;;2.30;99.90;;;;;;5073270;28;20027;-70
2022/03/18 05:16:30;;;;;;;87.32;27.92;;;2.30;99.90;;;;;;5073097;28;20025;-70
2022/03/18 05:18:55;;;;;;;90.25;25.83;;;2.30;99.90;;;;;;5073254;28;20048;-70
2022/03/18 05:21:21;;;;;;;80.05;26.48;;;2.20;99.90;;;;;;5073182;28;20476;-70
2022/03/18 05:23:47;;;;;;;78.88;27.95;;;2.10;99.90;;;;;;5073141;28;20187;-70
2022/03/18 05:26:13;;;;;;;94.22;28.02;;;2.10;99.90;;;;;;5072748;28;20028;-70
2022/03/18 05:28:39;;;;;;;103.78;28.95;;;2.10;99.90;;;;;;5072527;28;20507;-70
2022/03/18 05:31:05;;;;;;;79.45;25.98;;;2.20;99.90;;;;;;5072472;28;20116;-70
2022/03/18 05:33:30;;;;;;;76.88;25.75;;;2.20;99.90;;;;;;5072245;28;20407;-70
2022/03/18 05:35:56;;;;;;;92.18;26.27;;;2.20;99.90;;;;;;5072302;28;20032;-70
2022/03/18 05:38:22;;;;;;;98.78;26.88;;;2.20;99.90;;;;;;5072092;28;20035;-71
2022/03/18 05:40:47;;;;;;;71.20;24.35;;;2.10;99.90;;;;;;5072419;28;20032;-71
2022/03/18 05:43:13;;;;;;;84.25;25.02;;;2.10;99.90;;;;;;5072234;28;20031;-72
2022/03/18 05:45:39;;;;;;;69.20;22.58;;;2.10;99.90;;;;;;5074103;28;20104;-72
2022/03/18 05:48:06;;;;;;;78.32;21.83;;;2.10;99.90;;;;;;5075587;28;20028;-72
2022/03/18 05:50:33;;;;;;;73.45;22.58;;;2.00;99.90;;;;;;5075882;28;20052;-71
2022/03/18 05:52:58;;;;;;;71.80;22.52;;;2.00;99.90;;;;;;5075567;28;20036;-71
2022/03/18 05:55:24;;;;;;;81.57;24.55;;;1.90;99.90;;;;;;5075540;28;20025;-71
2022/03/18 05:57:52;;;;;;;90.80;24.90;;;1.90;99.90;;;;;;5075565;28;20373;-71
2022/03/18 06:00:18;;;;;;;73.53;26.23;;;2.00;99.90;;;;;;5075466;28;20492;-71
2022/03/18 06:02:45;;;;;;;76.07;24.58;;;2.00;99.90;;;;;;5075399;28;20058;-71
2022/03/18 06:05:10;;;;;;;72.30;23.23;;;2.10;99.90;;;;;;5075549;28;20028;-71
2022/03/18 06:07:37;;;;;;;66.72;22.35;;;2.20;99.90;;;;;;5076129;28;20025;-71
2022/03/18 06:12:47;;;;;;;72.40;20.80;;;2.30;99.90;;;;;;5075826;28;20039;-71
2022/03/18 06:15:13;;;;;;;81.40;21.40;;;2.40;99.90;;;;;;5075210;28;20384;-71
2022/03/18 06:17:38;;;;;;;74.47;21.55;;;2.40;99.90;;;;;;5075375;28;20032;-71
2022/03/18 06:20:04;;;;;;;80.78;21.92;;;2.50;99.90;;;;;;5075222;28;20104;-71
2022/03/18 06:22:30;;;;;;;59.83;21.30;;;2.60;99.90;;;;;;5075098;28;20028;-71
2022/03/18 06:24:56;;;;;;;71.05;19.58;;;2.60;99.90;;;;;;5075006;28;20029;-71
2022/03/18 06:27:21;;;;;;;64.10;20.40;;;2.60;99.90;;;;;;5039459;28;1038206;-72
2022/03/18 06:29:47;;;;;;;54.78;19.27;;;2.70;99.90;;;;;;5076402;28;20392;-72
2022/03/18 06:32:12;;;;;;;49.53;18.65;;;2.70;99.90;;;;;;5076118;28;20384;-72
2022/03/18 06:34:38;;;;;;;79.70;19.27;;;2.80;99.90;;;;;;5076065;28;20028;-72
2022/03/18 06:37:04;;;;;;;72.22;18.70;;;2.90;99.90;;;;;;5075964;28;20033;-72
2022/03/18 06:39:30;;;;;;;68.35;17.70;;;3.00;99.90;;;;;;5076019;28;20024;-72
2022/03/18 06:41:56;;;;;;;66.63;17.23;;;3.10;99.90;;;;;;5076183;28;20020;-72
2022/03/18 06:44:22;;;;;;;54.15;16.73;;;3.20;99.90;;;;;;5076095;28;20020;-72
2022/03/18 06:46:48;;;;;;;55.30;17.48;;;3.30;99.90;;;;;;5075718;28;20203;-72
2022/03/18 06:49:14;;;;;;;60.88;20.27;;;3.40;99.90;;;;;;5076318;28;20460;-72
2022/03/18 06:51:39;;;;;;;44.38;18.63;;;3.40;99.90;;;;;;5075792;28;20099;-72
2022/03/18 06:54:05;;;;;;;45.50;20.50;;;3.60;99.90;;;;;;5075995;28;20381;-72
2022/03/18 06:56:31;;;;;;;91.38;21.40;;;3.70;99.90;;;;;;5073040;28;20036;-72
2022/03/18 06:58:57;;;;;;;100.75;21.08;;;3.90;99.90;;;;;;5075626;28;20186;-72
2022/03/18 07:01:22;;;;;;;85.75;20.80;;;4.00;99.90;;;;;;5075545;28;20032;-72
2022/03/18 07:03:48;;;;;;;87.03;22.65;;;4.20;99.90;;;;;;5075543;28;20539;-72
2022/03/18 07:06:14;;;;;;;81.65;22.33;;;4.40;99.90;;;;;;5075311;28;20035;-72
2022/03/18 07:08:40;;;;;;;74.70;22.75;;;4.60;99.90;;;;;;5075541;28;20057;-72
2022/03/18 07:11:06;;;;;;;86.55;22.38;;;4.80;99.90;;;;;;5075643;28;20025;-72
2022/03/18 07:13:32;;;;;;;85.35;20.17;;;4.80;99.90;;;;;;5075617;28;20133;-72
2022/03/18 07:17:54;;;;;;;98.82;21.08;;;4.90;99.90;;;;;;5075857;28;20033;-72
2022/03/18 07:18:43;;;;;;;116.88;19.83;;;5.10;99.90;;;;;;5075115;28;20039;-72
2022/03/18 07:21:09;;;;;;;103.18;19.77;;;5.30;99.90;;;;;;5075229;28;20024;-72
2022/03/18 07:23:34;;;;;;;99.40;20.10;;;5.40;99.90;;;;;;5075652;28;20389;-72
2022/03/18 07:26:00;;;;;;;109.50;21.65;;;5.60;99.90;;;;;;5075096;28;20410;-72
2022/03/18 07:28:25;;;;;;;105.22;19.50;;;5.80;99.90;;;;;;5075112;28;20029;-72
2022/03/18 07:30:51;;;;;;;97.75;20.67;;;5.90;99.90;;;;;;5075270;28;20018;-72
2022/03/18 07:33:16;;;;;;;92.97;17.67;;;6.10;99.90;;;;;;5074868;28;20383;-72
2022/03/18 07:35:45;;;;;;;125.28;18.10;;;6.10;99.90;;;;;;5075117;28;20035;-72
2022/03/18 07:38:10;;;;;;;97.88;17.80;;;6.20;99.90;;;;;;5074815;28;20094;-72
2022/03/18 07:40:37;;;;;;;101.75;18.55;;;6.30;99.90;;;;;;5074839;28;20036;-72
2022/03/18 07:43:05;;;;;;;99.00;19.38;;;6.40;99.90;;;;;;5074760;28;20028;-72
2022/03/18 07:45:32;;;;;;;120.57;19.42;;;6.50;99.90;;;;;;5074623;28;20086;-72
2022/03/18 07:48:00;;;;;;;93.43;17.95;;;6.60;99.90;;;;;;5074816;28;20017;-72
2022/03/18 07:50:28;;;;;;;101.57;20.40;;;6.60;99.90;;;;;;5074574;28;20017;-72
2022/03/18 07:52:55;;;;;;;88.65;17.02;;;6.60;99.90;;;;;;5074618;28;20024;-72
2022/03/18 07:55:24;;;;;;;129.00;17.88;;;6.70;99.90;;;;;;5074462;28;20028;-72
2022/03/18 07:57:51;;;;;;;86.07;16.25;;;6.80;99.90;;;;;;5074439;28;20131;-72
2022/03/18 08:00:17;;;;;;;79.38;15.75;;;6.80;99.90;;;;;;5074669;28;20487;-72
2022/03/18 08:02:45;;;;;;;101.43;18.10;;;7.10;99.90;;;;;;5074646;28;20025;-72
2022/03/18 08:05:11;;;;;;;90.28;15.65;;;7.10;99.90;;;;;;5074280;28;20029;-72
2022/03/18 08:07:37;;;;;;;84.47;17.58;;;7.10;99.90;;;;;;5073814;28;20060;-72
2022/03/18 08:10:04;;;;;;;101.07;18.92;;;7.20;99.90;;;;;;5074216;28;20075;-72
2022/03/18 08:12:30;;;;;;;114.57;19.73;;;7.30;99.90;;;;;;5074730;28;20026;-72
2022/03/18 08:14:58;;;;;;;103.93;19.40;;;7.40;99.90;;;;;;5074113;28;20494;-72
2022/03/18 08:17:24;;;;;;;99.22;17.27;;;7.50;99.90;;;;;;5074779;28;20029;-72
2022/03/18 08:19:53;;;;;;;70.20;12.90;;;7.50;99.90;;;;;;5074566;28;20078;-72
2022/03/18 08:22:22;;;;;;;94.90;15.38;;;7.70;99.90;;;;;;5074442;28;20017;-72
2022/03/18 08:24:49;;;;;;;89.45;14.82;;;7.60;99.90;;;;;;5073823;28;20025;-72
2022/03/18 08:27:15;;;;;;;98.40;18.92;;;7.70;99.90;;;;;;5074212;28;20075;-72
2022/03/18 08:29:41;;;;;;;63.33;14.07;;;7.90;99.90;;;;;;5073941;28;20025;-72
2022/03/18 08:32:08;;;;;;;88.35;15.40;;;8.10;99.90;;;;;;5073814;28;20108;-72
2022/03/18 08:34:33;;;;;;;103.10;16.63;;;8.30;99.90;;;;;;5073941;28;20025;-72
2022/03/18 08:36:59;;;;;;;79.43;14.32;;;8.40;99.90;;;;;;5073689;28;20069;-73
2022/03/18 08:39:25;;;;;;;64.15;12.52;;;8.50;99.90;;;;;;5073803;28;20362;-73
2022/03/18 08:41:51;;;;;;;81.10;14.05;;;8.50;99.90;;;;;;5073692;28;20130;-73
2022/03/18 08:44:19;;;;;;;73.88;15.60;;;8.40;99.90;;;;;;5073745;28;20028;-73
2022/03/18 08:46:46;;;;;;;77.32;13.65;;;8.40;99.90;;;;;;5073539;28;20021;-72
2022/03/18 08:49:12;;;;;;;71.45;11.55;;;8.60;99.90;;;;;;5073627;28;20100;-72
2022/03/18 08:51:38;;;;;;;60.15;11.48;;;8.70;99.90;;;;;;5073533;28;20158;-72
2022/03/18 08:54:04;;;;;;;65.80;11.48;;;8.80;99.90;;;;;;5073602;28;20016;-72
2022/03/18 08:56:30;;;;;;;68.60;12.38;;;8.70;99.90;;;;;;5073410;28;20021;-72
2022/03/18 08:58:56;;;;;;;61.67;10.43;;;8.90;99.90;;;;;;5073706;28;20027;-73
2022/03/18 09:01:22;;;;;;;64.00;12.73;;;9.20;99.90;;;;;;5073406;28;20031;-73
2022/03/18 09:03:48;;;;;;;73.68;10.02;;;9.30;99.90;;;;;;5073474;28;20488;-73
2022/03/18 09:06:14;;;;;;;50.25;9.93;;;9.50;99.90;;;;;;5073296;28;20029;-72
2022/03/18 09:08:40;;;;;;;60.00;10.40;;;9.70;99.90;;;;;;5073497;28;20024;-73
2022/03/18 09:11:07;;;;;;;59.28;8.73;;;9.90;99.90;;;;;;5073431;28;20021;-73
2022/03/18 09:13:34;;;;;;;51.47;9.70;;;10.10;99.90;;;;;;5073671;28;20025;-73
2022/03/18 09:16:00;;;;;;;57.53;8.55;;;10.20;99.90;;;;;;5073301;28;20032;-73
2022/03/18 09:18:25;;;;;;;58.60;9.38;;;10.30;99.90;;;;;;5073658;28;20029;-73
2022/03/18 09:20:51;;;;;;;48.67;8.32;;;10.40;99.90;;;;;;5076062;28;20056;-74
2022/03/18 09:23:17;;;;;;;49.67;8.60;;;10.50;99.90;;;;;;5077559;28;20055;-73
2022/03/18 09:25:43;;;;;;;39.08;7.25;;;10.70;99.90;;;;;;5077339;28;20025;-73
2022/03/18 09:28:08;;;;;;;53.55;8.60;;;10.80;99.90;;;;;;5130470;23;20051;-72
2022/03/18 09:30:34;;;;;;;46.50;8.00;;;11.00;99.90;;;;;;5098186;28;20043;-72
2022/03/18 09:33:01;;;;;;;56.80;8.30;;;11.00;99.90;;;;;;5098196;28;20079;-72
2022/03/18 09:35:27;;;;;;;40.78;6.93;;;11.10;99.90;;;;;;5096857;28;20027;-72
2022/03/18 09:37:53;;;;;;;47.55;11.23;;;11.10;99.90;;;;;;5098032;28;20021;-72
2022/03/18 09:40:18;;;;;;;36.33;6.43;;;11.20;99.90;;;;;;5096878;28;20495;-72
2022/03/18 09:42:57;;;;;;;51.92;8.15;;;11.30;99.90;;;;;;5098207;28;20394;-72
2022/03/18 09:45:24;;;;;;;40.33;7.40;;;11.40;99.90;;;;;;5098526;28;20078;-72
2022/03/18 09:47:51;;;;;;;41.70;6.90;;;11.40;99.90;;;;;;5098314;28;20020;-72
2022/03/18 09:50:17;;;;;;;39.35;7.95;;;11.60;99.90;;;;;;5097962;28;20391;-72
2022/03/18 09:52:44;;;;;;;42.67;7.75;;;11.80;99.90;;;;;;5097616;28;20016;-70
2022/03/18 09:55:10;;;;;;;45.55;7.63;;;11.90;99.90;;;;;;5097769;28;20020;-70
2022/03/18 09:57:35;;;;;;;50.92;8.20;;;12.00;99.90;;;;;;5097825;28;20027;-72
2022/03/18 10:00:01;;;;;;;40.42;5.85;;;12.20;99.90;;;;;;5097634;28;20028;-72
2022/03/18 10:02:28;;;;;;;37.92;5.95;;;12.30;99.90;;;;;;5097562;28;20028;-72
2022/03/18 10:05:02;;;;;;;31.70;6.25;;;12.40;99.90;;;;;;5097774;28;20511;-73
2022/03/18 10:07:29;;;;;;;34.83;5.80;;;12.50;99.90;;;;;;5097475;28;20553;-72
2022/03/18 10:10:08;;;;;;;43.42;6.80;;;12.50;99.90;;;;;;5097364;28;20020;-73
2022/03/18 10:12:35;;;;;;;32.75;7.20;;;12.60;99.90;;;;;;5097698;28;20024;-73
2022/03/18 10:15:19;;;;;;;36.67;6.78;;;12.80;99.90;;;;;;5097467;28;20047;-73
2022/03/18 10:17:56;;;;;;;37.00;6.60;;;12.80;99.90;;;;;;5097318;28;20382;-72
2022/03/18 10:20:24;;;;;;;34.33;5.55;;;12.90;99.90;;;;;;5097571;28;20035;-73
2022/03/18 10:22:51;;;;;;;47.17;7.28;;;13.00;99.90;;;;;;5097265;28;20115;-73
2022/03/18 10:25:41;;;;;;;51.00;7.63;;;13.20;99.90;;;;;;5097350;28;20020;-73
2022/03/18 10:28:08;;;;;;;39.33;6.68;;;13.20;99.90;;;;;;5097061;28;20028;-72
2022/03/18 10:30:35;;;;;;;32.38;5.78;;;13.40;99.90;;;;;;5096728;28;20032;-72
2022/03/18 10:33:01;;;;;;;29.00;4.50;;;13.50;99.90;;;;;;5097401;28;20049;-73
2022/03/18 10:38:28;;;;;;;29.23;4.82;;;13.40;99.90;;;;;;5096916;28;20039;-73
2022/03/18 10:40:55;;;;;;;31.10;6.15;;;13.50;99.90;;;;;;5096795;28;20122;-73
2022/03/18 10:43:21;;;;;;;37.47;6.03;;;13.60;99.90;;;;;;5096754;28;20024;-73
2022/03/18 10:46:04;;;;;;;40.47;5.57;;;13.70;99.90;;;;;;5096576;28;20034;-72
2022/03/18 10:48:30;;;;;;;34.17;5.55;;;14.00;99.90;;;;;;5096610;28;20073;-72
2022/03/18 10:51:04;;;;;;;34.55;5.60;;;14.10;99.90;;;;;;5096640;28;20048;-73
2022/03/18 10:53:30;;;;;;;30.20;4.82;;;14.10;99.90;;;;;;5096741;28;20020;-73
2022/03/18 10:56:01;;;;;;;28.10;5.93;;;13.90;99.90;;;;;;5096488;28;20023;-73
2022/03/18 10:58:32;;;;;;;21.33;4.35;;;14.00;99.90;;;;;;5096288;28;20483;-73
2022/03/18 11:01:00;;;;;;;34.17;5.85;;;13.70;99.90;;;;;;5096240;28;20111;-72
2022/03/18 11:03:26;;;;;;;33.05;5.63;;;13.80;99.90;;;;;;5096366;28;20016;-72
2022/03/18 11:05:52;;;;;;;32.28;5.63;;;13.90;99.90;;;;;;5095907;28;20035;-73
2022/03/18 11:08:23;;;;;;;37.50;5.80;;;14.00;99.90;;;;;;5096217;28;20088;-73
2022/03/18 11:11:11;;;;;;;30.75;5.40;;;14.10;99.90;;;;;;5096251;28;20035;-73
2022/03/18 11:13:56;;;;;;;52.05;7.55;;;14.20;99.90;;;;;;5094930;28;20024;-73
2022/03/18 11:16:29;;;;;;;30.50;6.25;;;14.50;99.90;;;;;;5095957;28;20391;-72
2022/03/18 11:18:57;;;;;;;30.75;6.50;;;14.50;99.90;;;;;;5096574;28;20031;-73
2022/03/18 11:21:35;;;;;;;22.90;4.88;;;14.40;99.90;;;;;;5096025;28;20024;-73
2022/03/18 11:24:03;;;;;;;23.75;4.93;;;14.40;99.90;;;;;;5096261;28;20024;-73
2022/03/18 11:26:31;;;;;;;36.10;5.25;;;14.30;99.90;;;;;;5095698;28;20027;-72
2022/03/18 11:29:09;;;;;;;36.15;7.07;;;14.60;99.90;;;;;;5095942;28;20024;-73
2022/03/18 11:31:35;;;;;;;42.75;4.70;;;15.00;99.90;;;;;;5095782;28;20023;-73
2022/03/18 11:34:09;;;;;;;27.42;4.88;;;15.10;99.90;;;;;;5096105;28;20024;-73
2022/03/18 11:36:37;;;;;;;23.85;4.32;;;15.10;99.90;;;;;;5095610;28;20024;-73
2022/03/18 11:39:07;;;;;;;26.58;4.60;;;15.20;99.90;;;;;;5095642;28;20060;-73
2022/03/18 11:41:48;;;;;;;21.35;4.90;;;15.00;99.90;;;;;;5096195;28;20416;-72
2022/03/18 11:44:59;;;;;;;24.65;3.97;;;15.10;99.90;;;;;;5094831;28;20032;-72
2022/03/18 11:47:33;;;;;;;21.13;3.60;;;15.00;99.90;;;;;;5094126;28;20085;-73
2022/03/18 11:50:00;;;;;;;21.35;3.58;;;14.80;99.90;;;;;;5095808;28;20025;-73
2022/03/18 11:52:26;;;;;;;25.38;3.65;;;14.80;99.90;;;;;;5095627;28;20024;-73
2022/03/18 11:55:07;;;;;;;22.50;3.75;;;14.90;99.90;;;;;;5095424;28;20030;-73
2022/03/18 11:57:34;;;;;;;22.73;3.55;;;14.80;99.90;;;;;;5095634;28;20020;-73
2022/03/18 12:00:05;;;;;;;23.48;3.80;;;14.90;99.90;;;;;;5095265;28;20059;-72
2022/03/18 12:02:36;;;;;;;22.33;4.13;;;15.50;99.90;;;;;;5095657;28;20021;-72
2022/03/18 12:05:03;;;;;;;20.55;3.42;;;15.50;99.90;;;;;;5095780;28;20020;-72
2022/03/18 12:07:32;;;;;;;31.70;4.93;;;16.10;99.90;;;;;;5095306;28;20028;-72
2022/03/18 12:10:06;;;;;;;26.75;4.18;;;16.40;99.90;;;;;;5095256;28;20023;-72
2022/03/18 12:12:48;;;;;;;25.52;4.75;;;16.70;99.90;;;;;;5095385;28;20038;-72
2022/03/18 12:15:19;;;;;;;21.92;3.95;;;16.80;99.90;;;;;;5095331;28;20023;-72
2022/03/18 12:17:55;;;;;;;25.67;3.85;;;17.00;99.90;;;;;;5095222;28;20487;-72
2022/03/18 12:20:24;;;;;;;23.42;4.28;;;16.80;99.90;;;;;;5095660;28;20028;-73
2022/03/18 12:22:52;;;;;;;27.80;4.35;;;16.90;99.90;;;;;;5094878;28;20031;-73
2022/03/18 12:25:18;;;;;;;22.73;4.45;;;16.70;99.90;;;;;;5095116;28;20063;-73
2022/03/18 12:27:44;;;;;;;26.83;3.42;;;16.80;99.90;;;;;;5094706;28;20032;-73
2022/03/18 12:30:13;;;;;;;20.25;3.30;;;16.80;99.90;;;;;;5094803;28;20016;-73
2022/03/18 12:32:47;;;;;;;20.92;3.42;;;17.00;99.90;;;;;;5094889;28;20111;-72
2022/03/18 12:35:13;;;;;;;21.15;3.35;;;17.10;99.90;;;;;;5095000;28;20032;-72
2022/03/18 12:37:40;;;;;;;19.10;4.32;;;17.10;99.90;;;;;;5094638;28;20042;-72
2022/03/18 12:40:09;;;;;;;24.77;4.57;;;17.20;99.90;;;;;;5094819;28;20016;-72
2022/03/18 12:42:56;;;;;;;20.45;4.53;;;16.90;99.90;;;;;;5093189;28;20053;-72
2022/03/18 12:45:29;;;;;;;21.92;3.70;;;17.40;99.90;;;;;;5094382;28;20020;-73
2022/03/18 12:47:57;;;;;;;18.05;3.80;;;17.50;99.90;;;;;;5094436;28;20074;-72
2022/03/18 12:50:33;;;;;;;28.05;4.47;;;17.60;99.90;;;;;;5094453;28;20035;-72